Nearby METAR Reports

EGQS - RAF Lossiemouth, UK
Distance from station: WNW 12mi, 19km
Updated: 26/02/2024 14:50
Mostly cloudy
Mostly cloudy
 Wind from W
Wind: W 9 mph , 15 km/h
Temperature: 7°C
Wind Chill: 4°C
Dew Point: -2°C
Humidity: 53%
Barometer: 1019 hPa
Clouds: Mostly cloudy
Visibility: 6 miles , 10 km
Cloud details: Few Clouds 732 m
Mostly cloudy 7620 m
2024/02/26 14:50 EGQS 261450Z 26008KT 9999 FEW024 BKN250 07/M02 Q1019 NOSIG RMK BLU BLU
EGQK - RAF Kinloss, UK
Distance from station: WSW 22mi, 36km
Updated: 26/02/2024 14:50
Clear
Clear
 Wind from WSW
Wind: WSW 6 mph , 9 km/h
Temperature: 8°C
Wind Chill: 6°C
Dew Point: -2°C
Humidity: 50%
Barometer: 1019 hPa
Clouds: Clear
Visibility: 6 miles , 10 km
2024/02/26 14:50 EGQK 261450Z AUTO 25005KT 9999 NCD 08/M02 Q1019
 
EGPE - Inverness/Dalcross, UK
Distance from station: WSW 39mi, 63km
Updated: 26/02/2024 15:20
Few Clouds
Few Clouds
 Wind from W
Wind: W 10 mph , 17 km/h
Temperature: 7°C
Wind Chill: 4°C
Dew Point: -2°C
Humidity: 53%
Barometer: 1019 hPa
Clouds: Few Clouds
Visibility: 6 miles , 10 km
Cloud details: Few Clouds 975 m
2024/02/26 15:20 EGPE 261520Z 26009KT 9999 FEW032 07/M02 Q1019
EGPD - Aberdeen/Dyce, UK
Distance from station: SE 44mi, 71km
Updated: 26/02/2024 15:20
Few Clouds
Few Clouds
 Wind from NW
Wind: NW 5 mph , 7 km/h
Temperature: 6°C
Wind Chill: 4°C
Dew Point: 1°C
Humidity: 71%
Clouds: Few Clouds
Visibility: 6 miles , 10 km
Cloud details: Few Clouds 732 m
2024/02/26 15:20 EGPD 261520Z AUTO 31004KT 9999 FEW024 06/01 Q10